Atwell, West Virginia
Current Conditions -  °F | °C
As of 4:15 AM on Monday 20 Oct 2014 (Local Time) from KJFZ Reporting Station
Clear Clear  
Wind Chill:   Ceiling: Unl
Heat Index:   Visibility: 10mi
Dew Point:   Wind: 3mph
Humidity: 71%   Direction: 140°SE
Pressure: 30.07"   Gusts: NA
Location:  37.3433°N, 81.7826°W
Report Text: KJFZ 200815Z AUTO 14003KT 10SM CLR 08/03 A3007 RMK AO2 T00760026
Loading
Personal Weather Stations






























Interactive Weather Map
Tropical Storm Tracking
New forecast layout! Learn more

10-Day Weather Forecast

Advertisements
Track Severe Weather on mobile